Toledo, Iowa
Current Conditions -  °F | °C
As of 1:53 PM on Friday 24 Oct 2014 (Local Time) from KMIW Reporting Station
Haze Haze  
Wind Chill: 60°   Ceiling: 400
Heat Index: 60°   Visibility: 2mi
Dew Point: 59°   Wind: 12mph
Humidity: 96%   Direction: 190°S
Pressure: 29.91"   Gusts: NA
Location:  42°N, 92.58°W
Report Text: KMIW 241853Z AUTO 19010KT 2SM BR OVC004 16/15 A2991 RMK AO2 SLP129 T01560150
Loading
Personal Weather Stations






























Interactive Weather Map New forecast layout! Learn more

10-Day Weather Forecast

Advertisements
Track Severe Weather on mobile